Airfield :
LOGIN :

Register | Disclaimer

   EN    FR    IT 

 










Legend :    VFR   Marginal VFR   IFR   Intensive IFR   Very Intensive IFR
Visi :
Ceiling :
>= 8 km
>= 3000ft
5 to 8 km
1000 to 3000 ft
1500m to 5 km
500 to 1000 ft
800 to 1500m
200 to 500 ft
< 800m
< 200 ft
Symbols :   Thunderstorms  Fog  Heavy snow  Heavy precipitations  Wind > 20 kt
SIGMETs :     Misc.  Thunderstorms  Icing  Turbulence  Mountain Waves  Volcanic Ashes






- Airport Elevation : 218 ft


EGYD - RAF Cranwell

CURRENT METAR :
  • 211450Z 35013KT 9999 FEW016 SCT035 BKN040 11/08 Q1021 TEMPO SCT016 RMK BLU TEMPO WHT

EXPIRED METARs :
  • 211420Z 34013KT 9999 FEW015 BKN042 11/08 Q1021 TEMPO SCT015 RMK BLU TEMPO WHT
  • 211350Z 34013KT 9999 SCT015 SCT028 BKN050 11/09 Q1021 TEMPO FEW015 RMK WHT TEMPO BLU
  • 211320Z 35015KT 9999 SCT015 SCT028 BKN042 11/09 Q1021 TEMPO FEW015 RMK WHT TEMPO BLU
  • 211250Z 36015KT 9999 SCT015 BKN042 12/09 Q1020 TEMPO FEW015 RMK WHT TEMPO BLU
  • 211220Z 35014KT 9999 SCT014 BKN042 11/09 Q1020 TEMPO SCT015 RMK GRN TEMPO WHT

TAF TAF EGYD
Valid from the 21 at 15:00 until the 21 at 18:00 UTC


211324Z 2115/2118 35014KT 9999 FEW015 BKN030
TEMPO 2115/2118 BKN015



MET'MAP, your aeronautical weather chart ! - Copyright ORBIFLY December 2007 - Disclaimer

ORBIFLY MET'MAP TEAM :

Programming & Development : Alexandra Zaïnal
Concept & Development : Baudouin d'Aumeries
Co-Development & Prog : Marc-Olivier Méhu
Technical & hardware support : Manuel Goepfert

Contact : metmap@orbifly.com




SOURCES & CREDITS :

   NOAA